Time;durP1;ratioP1;P1;durP2;ratioP2;P2;SDS_P1;SDS_P2;PMS_P1;PMS_P2;Temp;Humidity;BMP_temperature;BMP_pressure;BME280_temperature;BME280_humidity;BME280_pressure;Samples;Min_cycle;Max_cycle;Signal;HPM_P1;HPM_P2
2021/10/14 00:02:20;;;;;;;5.05;3.30;;;6.80;82.30;;;;;;6196709;28;20826;-76
2021/10/14 00:05:22;;;;;;;6.95;3.58;;;6.80;82.20;;;;;;6220045;28;20420;-76
2021/10/14 00:08:25;;;;;;;7.35;3.50;;;6.80;82.00;;;;;;6221317;28;20442;-77
2021/10/14 00:11:28;;;;;;;3.35;2.63;;;6.80;82.00;;;;;;6220709;28;20413;-76
2021/10/14 00:14:29;;;;;;;4.57;3.58;;;6.80;82.10;;;;;;6221117;28;20421;-76
2021/10/14 00:17:31;;;;;;;4.82;2.80;;;6.80;81.60;;;;;;6220843;28;20416;-77
2021/10/14 00:20:33;;;;;;;5.25;3.35;;;6.80;81.70;;;;;;6221230;28;20425;-77
2021/10/14 00:23:36;;;;;;;3.65;3.05;;;6.80;81.70;;;;;;6220790;28;20413;-76
2021/10/14 00:26:38;;;;;;;5.22;3.40;;;6.80;81.90;;;;;;6220598;28;20453;-76
2021/10/14 00:29:40;;;;;;;3.95;3.53;;;6.80;82.10;;;;;;6220628;28;20416;-76
2021/10/14 00:32:42;;;;;;;5.53;3.30;;;6.80;82.00;;;;;;6220922;28;20432;-76
2021/10/14 00:35:43;;;;;;;4.07;3.03;;;6.80;81.70;;;;;;6220591;28;20528;-76
2021/10/14 00:38:46;;;;;;;6.47;4.20;;;6.90;82.10;;;;;;6219964;28;20412;-76
2021/10/14 00:41:48;;;;;;;5.22;4.15;;;6.90;82.00;;;;;;6220606;28;20423;-76
2021/10/14 00:44:52;;;;;;;3.78;3.40;;;7.00;82.50;;;;;;6215639;28;20436;-77
2021/10/14 00:47:54;;;;;;;4.25;3.17;;;7.10;82.10;;;;;;6242259;23;20928;-77
2021/10/14 00:50:55;;;;;;;5.30;4.22;;;7.10;82.30;;;;;;6219561;28;20459;-77
2021/10/14 00:53:59;;;;;;;6.32;3.88;;;7.20;82.60;;;;;;6220275;28;20496;-77
2021/10/14 00:57:01;;;;;;;7.80;3.83;;;7.30;82.70;;;;;;6220094;28;20564;-77
2021/10/14 01:00:04;;;;;;;7.22;3.58;;;7.30;82.60;;;;;;6220217;28;20523;-77
2021/10/14 01:03:06;;;;;;;3.80;3.40;;;7.30;82.10;;;;;;6220184;28;20417;-77
2021/10/14 01:06:08;;;;;;;5.68;3.50;;;7.40;81.40;;;;;;6210152;28;20478;-77
2021/10/14 01:09:12;;;;;;;4.60;3.58;;;7.40;82.20;;;;;;6224687;28;20602;-77
2021/10/14 01:12:15;;;;;;;4.63;3.57;;;7.50;82.30;;;;;;6225108;28;20518;-77
2021/10/14 01:15:22;;;;;;;5.47;3.63;;;7.50;81.70;;;;;;6224770;28;20428;-77
2021/10/14 01:18:25;;;;;;;8.38;3.85;;;7.50;81.60;;;;;;6224380;28;20408;-77
2021/10/14 01:21:29;;;;;;;4.85;4.35;;;7.40;81.60;;;;;;6224783;28;20416;-77
2021/10/14 01:24:31;;;;;;;5.88;3.45;;;7.30;81.40;;;;;;6224905;28;20491;-77
2021/10/14 01:27:32;;;;;;;6.70;3.70;;;7.20;81.70;;;;;;6224399;28;20424;-77
2021/10/14 01:30:34;;;;;;;4.18;3.20;;;7.20;81.60;;;;;;6223926;28;20472;-77
2021/10/14 01:33:36;;;;;;;6.07;3.63;;;7.10;81.20;;;;;;6224436;28;20786;-77
2021/10/14 01:36:39;;;;;;;5.85;3.55;;;7.00;81.10;;;;;;6224460;28;20479;-76
2021/10/14 01:39:41;;;;;;;3.60;3.30;;;6.90;81.00;;;;;;6223979;28;20484;-77
2021/10/14 01:42:42;;;;;;;4.37;3.97;;;6.80;81.50;;;;;;6224029;28;20937;-77
2021/10/14 01:45:44;;;;;;;4.40;3.50;;;6.80;81.70;;;;;;6223912;28;20439;-77
2021/10/14 01:48:46;;;;;;;4.05;3.20;;;6.70;81.80;;;;;;6224162;28;20437;-77
2021/10/14 01:51:49;;;;;;;4.10;3.30;;;6.70;81.80;;;;;;6223696;28;20487;-77
2021/10/14 01:54:51;;;;;;;7.90;3.83;;;6.70;81.70;;;;;;6223897;28;20913;-77
2021/10/14 01:57:52;;;;;;;5.00;3.63;;;6.60;81.70;;;;;;6223626;28;20420;-77
2021/10/14 02:00:54;;;;;;;3.88;3.28;;;6.60;82.00;;;;;;6223887;28;20899;-77
2021/10/14 02:03:56;;;;;;;3.88;3.42;;;6.60;81.80;;;;;;6223424;28;20427;-77
2021/10/14 02:06:59;;;;;;;4.57;3.78;;;6.50;81.70;;;;;;6208776;28;20423;-76
2021/10/14 02:10:01;;;;;;;4.90;2.90;;;6.50;81.60;;;;;;6198730;28;20437;-77
2021/10/14 02:13:04;;;;;;;3.80;2.63;;;6.40;81.80;;;;;;6199540;28;20440;-76
2021/10/14 02:16:06;;;;;;;6.70;3.58;;;6.40;82.10;;;;;;6199565;28;20438;-77
2021/10/14 02:19:08;;;;;;;4.28;3.10;;;6.40;81.90;;;;;;6197463;28;20464;-77
2021/10/14 02:22:11;;;;;;;8.82;3.60;;;6.30;82.00;;;;;;6198807;28;20907;-77
2021/10/14 02:25:15;;;;;;;4.00;3.53;;;6.30;82.00;;;;;;6198767;28;20469;-77
2021/10/14 02:28:17;;;;;;;4.95;3.20;;;6.30;82.10;;;;;;6199040;28;20468;-77
2021/10/14 02:31:19;;;;;;;7.10;3.50;;;6.30;81.70;;;;;;6198574;28;20426;-77
2021/10/14 02:34:20;;;;;;;4.70;3.25;;;6.20;81.60;;;;;;6198637;28;20426;-76
2021/10/14 02:37:24;;;;;;;4.38;3.13;;;6.20;81.60;;;;;;6198444;28;20417;-77
2021/10/14 02:40:26;;;;;;;5.10;3.20;;;6.20;81.50;;;;;;6199141;28;20521;-77
2021/10/14 02:43:28;;;;;;;3.75;3.45;;;6.10;81.60;;;;;;6198322;28;20426;-77
2021/10/14 02:46:29;;;;;;;3.67;3.17;;;6.10;81.80;;;;;;6198500;28;20799;-77
2021/10/14 02:49:31;;;;;;;7.68;4.05;;;6.10;82.00;;;;;;6197808;28;20429;-77
2021/10/14 02:52:34;;;;;;;5.43;3.60;;;6.10;81.70;;;;;;6199208;28;20438;-76
2021/10/14 02:55:36;;;;;;;3.50;3.00;;;6.10;82.10;;;;;;6198363;28;20950;-76
2021/10/14 02:58:38;;;;;;;4.10;2.78;;;6.10;82.00;;;;;;6197918;28;20425;-76
2021/10/14 03:01:40;;;;;;;3.45;3.05;;;6.20;81.40;;;;;;6198278;28;20425;-76
2021/10/14 03:04:41;;;;;;;3.55;2.60;;;6.20;81.40;;;;;;6198476;28;20434;-77
2021/10/14 03:07:45;;;;;;;3.50;2.75;;;6.30;80.80;;;;;;6207582;28;20932;-76
2021/10/14 03:10:46;;;;;;;3.75;2.60;;;6.20;81.00;;;;;;6221803;28;20413;-77
2021/10/14 03:13:48;;;;;;;3.53;2.88;;;6.20;81.10;;;;;;6222338;28;20416;-77
2021/10/14 03:16:50;;;;;;;5.00;3.10;;;6.20;81.00;;;;;;6222423;28;20439;-76
2021/10/14 03:19:52;;;;;;;4.23;3.27;;;6.10;81.40;;;;;;6221645;28;20474;-77
2021/10/14 03:22:55;;;;;;;4.50;2.90;;;6.10;81.00;;;;;;6221872;28;20536;-77
2021/10/14 03:25:57;;;;;;;4.40;3.47;;;6.00;81.30;;;;;;6221722;28;20615;-77
2021/10/14 03:28:58;;;;;;;6.27;3.17;;;6.00;81.90;;;;;;6221176;28;20797;-76
2021/10/14 03:32:00;;;;;;;3.92;3.13;;;5.90;81.80;;;;;;6221910;28;20515;-76
2021/10/14 03:35:02;;;;;;;4.68;2.67;;;5.90;82.00;;;;;;6221554;28;20424;-76
2021/10/14 03:38:05;;;;;;;4.22;2.53;;;5.90;81.80;;;;;;6221669;28;20417;-77
2021/10/14 03:41:07;;;;;;;5.43;3.20;;;5.90;81.90;;;;;;6221338;28;20432;-77
2021/10/14 03:44:11;;;;;;;3.30;2.95;;;5.80;81.80;;;;;;6221884;28;20950;-77
2021/10/14 03:47:12;;;;;;;3.78;2.88;;;5.80;81.80;;;;;;6221069;28;20417;-77
2021/10/14 03:50:15;;;;;;;4.60;3.22;;;5.80;81.80;;;;;;6220938;28;20740;-76
2021/10/14 03:53:18;;;;;;;4.18;2.85;;;5.70;81.60;;;;;;6221257;28;20437;-77
2021/10/14 03:56:20;;;;;;;4.47;3.30;;;5.70;81.80;;;;;;6221570;28;20451;-77
2021/10/14 03:59:22;;;;;;;6.22;3.40;;;5.70;82.10;;;;;;6220748;28;20427;-77
2021/10/14 04:02:24;;;;;;;4.10;2.50;;;5.80;81.90;;;;;;6220898;28;20432;-77
2021/10/14 04:05:26;;;;;;;5.38;2.83;;;5.80;81.80;;;;;;6220941;28;20420;-76
2021/10/14 04:08:29;;;;;;;3.97;2.95;;;5.90;81.60;;;;;;6210489;28;20487;-77
2021/10/14 04:11:31;;;;;;;8.13;4.47;;;5.90;81.80;;;;;;6196176;28;20415;-76
2021/10/14 04:14:32;;;;;;;14.35;5.30;;;5.90;81.60;;;;;;6196485;28;20494;-76
2021/10/14 04:17:34;;;;;;;19.95;7.57;;;6.00;81.90;;;;;;6195963;28;20411;-77
2021/10/14 04:20:36;;;;;;;15.73;6.32;;;5.90;81.20;;;;;;6196381;28;20792;-76
2021/10/14 04:23:42;;;;;;;12.63;5.28;;;5.90;81.90;;;;;;6196279;28;20459;-76
2021/10/14 04:26:44;;;;;;;9.07;5.30;;;5.90;81.80;;;;;;6195882;28;20804;-76
2021/10/14 04:29:46;;;;;;;10.43;4.70;;;5.90;81.90;;;;;;6195728;28;20422;-77
2021/10/14 04:32:48;;;;;;;5.93;3.75;;;5.90;82.50;;;;;;6197130;28;20441;-76
2021/10/14 04:35:50;;;;;;;8.00;4.40;;;6.00;83.60;;;;;;6195760;28;20453;-77
2021/10/14 04:38:54;;;;;;;5.10;3.60;;;6.10;83.90;;;;;;6196731;28;20422;-76
2021/10/14 04:41:55;;;;;;;7.90;3.95;;;6.20;83.50;;;;;;6195552;28;20423;-76
2021/10/14 04:44:59;;;;;;;5.55;3.10;;;6.20;83.70;;;;;;6195984;28;20930;-76
2021/10/14 04:48:01;;;;;;;6.18;3.70;;;6.30;83.60;;;;;;6195832;28;20428;-76
2021/10/14 04:51:03;;;;;;;6.83;4.50;;;6.40;82.80;;;;;;6195045;28;20497;-77
2021/10/14 04:54:06;;;;;;;7.77;4.50;;;6.40;82.80;;;;;;6195849;28;20426;-77
2021/10/14 04:57:08;;;;;;;5.80;3.90;;;6.50;82.90;;;;;;6195375;28;20434;-77
2021/10/14 05:00:11;;;;;;;6.15;4.10;;;6.50;82.90;;;;;;6195873;28;20445;-77
2021/10/14 05:03:13;;;;;;;7.57;4.80;;;6.60;83.10;;;;;;6195492;28;20414;-77
2021/10/14 05:06:14;;;;;;;5.38;4.10;;;6.60;82.60;;;;;;6195590;28;20430;-77
2021/10/14 05:09:18;;;;;;;7.28;4.43;;;6.60;83.10;;;;;;6201280;28;20434;-77
2021/10/14 05:12:20;;;;;;;5.82;4.32;;;6.60;82.60;;;;;;6196126;28;20441;-76
2021/10/14 05:15:22;;;;;;;7.00;4.45;;;6.50;82.50;;;;;;6195564;28;20501;-76
2021/10/14 05:18:24;;;;;;;9.57;4.93;;;6.50;83.50;;;;;;6195094;28;20423;-76
2021/10/14 05:21:25;;;;;;;7.20;4.55;;;6.50;83.40;;;;;;6195194;28;20495;-76
2021/10/14 05:24:28;;;;;;;8.70;5.65;;;6.50;83.50;;;;;;6195515;28;20433;-76
2021/10/14 05:27:30;;;;;;;8.77;5.20;;;6.50;83.50;;;;;;6195445;28;20418;-76
2021/10/14 05:30:32;;;;;;;7.60;5.30;;;6.50;83.80;;;;;;6194738;28;20414;-76
2021/10/14 05:33:34;;;;;;;7.63;5.30;;;6.60;83.50;;;;;;6195557;28;20474;-76
2021/10/14 05:36:35;;;;;;;6.45;5.20;;;6.60;83.60;;;;;;6195254;28;20444;-77
2021/10/14 05:39:38;;;;;;;10.32;6.13;;;6.60;84.10;;;;;;6194725;28;20425;-77
2021/10/14 05:42:40;;;;;;;7.93;6.05;;;6.60;84.30;;;;;;6195035;28;20410;-76
2021/10/14 05:45:42;;;;;;;10.30;7.03;;;6.70;83.40;;;;;;6195284;28;20425;-77
2021/10/14 05:48:44;;;;;;;6.28;5.47;;;6.70;84.60;;;;;;6195124;28;20434;-76
2021/10/14 05:51:46;;;;;;;7.68;5.05;;;6.70;84.10;;;;;;6194853;28;20411;-76
2021/10/14 05:54:49;;;;;;;10.13;5.63;;;6.80;84.00;;;;;;6198810;28;20426;-76
2021/10/14 05:57:51;;;;;;;10.00;5.18;;;6.80;83.70;;;;;;6198881;28;20485;-77
2021/10/14 06:00:52;;;;;;;8.10;5.77;;;6.80;83.80;;;;;;6199465;28;20496;-76
2021/10/14 06:03:55;;;;;;;8.90;5.88;;;6.90;83.20;;;;;;6199079;28;20508;-76
2021/10/14 06:06:57;;;;;;;9.88;5.90;;;6.90;83.60;;;;;;6199284;28;20426;-76
2021/10/14 06:10:00;;;;;;;8.90;6.63;;;6.90;83.70;;;;;;6202533;28;20441;-77
2021/10/14 06:13:02;;;;;;;8.98;6.78;;;7.00;83.30;;;;;;6201256;28;20517;-76
2021/10/14 06:16:05;;;;;;;8.60;7.15;;;7.10;83.40;;;;;;6199031;28;20438;-76
2021/10/14 06:19:06;;;;;;;11.77;8.45;;;7.20;83.10;;;;;;6198639;28;20422;-76
2021/10/14 06:22:08;;;;;;;11.97;8.77;;;7.30;82.70;;;;;;6198729;28;20507;-77
2021/10/14 06:25:11;;;;;;;10.77;8.25;;;7.40;82.80;;;;;;6198727;28;20517;-77
2021/10/14 06:28:13;;;;;;;10.80;8.57;;;7.40;82.70;;;;;;6199201;28;20495;-76
2021/10/14 06:31:15;;;;;;;11.07;7.72;;;7.40;82.60;;;;;;6198054;28;20414;-77
2021/10/14 06:34:17;;;;;;;10.68;7.75;;;7.50;82.80;;;;;;6198914;28;20440;-76
2021/10/14 06:37:19;;;;;;;9.40;7.57;;;7.60;82.50;;;;;;6198097;28;20931;-77
2021/10/14 06:40:22;;;;;;;10.30;7.78;;;7.60;82.50;;;;;;6158089;28;20409;-76
2021/10/14 06:43:24;;;;;;;8.90;6.97;;;7.70;82.50;;;;;;6200884;28;20422;-76
2021/10/14 06:46:26;;;;;;;7.65;5.90;;;7.70;82.30;;;;;;6219124;28;20928;-76
2021/10/14 06:49:27;;;;;;;10.82;6.30;;;7.80;82.30;;;;;;6227536;28;20555;-77
2021/10/14 06:52:29;;;;;;;6.50;5.73;;;7.90;82.10;;;;;;6224310;28;20522;-76
2021/10/14 06:55:32;;;;;;;8.02;6.53;;;8.10;82.10;;;;;;6222395;28;20901;-76
2021/10/14 06:58:34;;;;;;;10.85;6.32;;;8.10;81.80;;;;;;6221961;28;20431;-77
2021/10/14 07:01:36;;;;;;;6.97;5.88;;;8.30;81.90;;;;;;6222089;28;20425;-76
2021/10/14 07:04:38;;;;;;;7.35;5.90;;;8.40;81.40;;;;;;6221872;28;20439;-76
2021/10/14 07:07:39;;;;;;;6.30;5.57;;;8.50;81.50;;;;;;6221591;28;20447;-76
2021/10/14 07:10:45;;;;;;;7.05;5.47;;;8.60;80.90;;;;;;6214700;28;20427;-75
2021/10/14 07:13:47;;;;;;;9.30;5.68;;;8.80;80.60;;;;;;6218920;28;20910;-76
2021/10/14 07:16:50;;;;;;;7.20;5.25;;;8.90;80.30;;;;;;6221845;28;20442;-76
2021/10/14 07:19:51;;;;;;;10.55;5.20;;;9.10;80.10;;;;;;6221512;28;20424;-76
2021/10/14 07:22:53;;;;;;;7.75;5.53;;;9.50;79.00;;;;;;6221599;28;20444;-76
2021/10/14 07:25:57;;;;;;;11.55;5.22;;;9.70;78.40;;;;;;6222025;28;20417;-75
2021/10/14 07:29:00;;;;;;;8.88;5.28;;;9.80;77.30;;;;;;6221084;28;20523;-75
2021/10/14 07:32:02;;;;;;;7.57;6.45;;;9.90;77.40;;;;;;6221987;28;20932;-75
2021/10/14 07:35:05;;;;;;;6.28;5.18;;;10.00;77.50;;;;;;6221272;28;20922;-75
2021/10/14 07:38:10;;;;;;;8.68;6.43;;;10.20;77.20;;;;;;6221614;28;20447;-75
2021/10/14 07:41:13;;;;;;;8.05;6.15;;;10.30;77.30;;;;;;6221610;28;20429;-76
2021/10/14 07:44:16;;;;;;;11.05;7.05;;;10.40;76.70;;;;;;6221664;28;20432;-76
2021/10/14 07:47:18;;;;;;;11.23;6.63;;;10.40;76.10;;;;;;6220956;28;20432;-75
2021/10/14 07:50:20;;;;;;;9.23;6.47;;;10.50;75.60;;;;;;6221006;28;20423;-76
2021/10/14 07:53:22;;;;;;;8.75;5.97;;;10.70;75.30;;;;;;6221411;28;20417;-76
2021/10/14 07:56:25;;;;;;;6.60;5.43;;;10.90;75.00;;;;;;6221361;28;21052;-75
2021/10/14 07:59:27;;;;;;;5.93;4.90;;;11.20;73.80;;;;;;6221098;28;20416;-76
2021/10/14 08:02:28;;;;;;;7.22;6.03;;;11.60;72.00;;;;;;6221029;28;20447;-76
2021/10/14 08:05:30;;;;;;;6.47;4.73;;;11.80;71.10;;;;;;6221552;28;20551;-76
2021/10/14 08:08:32;;;;;;;6.93;5.40;;;12.00;70.10;;;;;;6221323;28;20827;-75
2021/10/14 08:11:35;;;;;;;6.45;5.00;;;12.30;70.00;;;;;;6215396;28;20421;-75
2021/10/14 08:14:37;;;;;;;7.50;5.30;;;12.60;69.70;;;;;;6217105;28;20424;-76
2021/10/14 08:17:39;;;;;;;8.23;5.38;;;12.70;69.40;;;;;;6219892;28;21025;-76
2021/10/14 08:20:40;;;;;;;6.22;4.57;;;12.80;67.70;;;;;;6220642;28;20813;-76
2021/10/14 08:23:42;;;;;;;8.10;5.18;;;12.60;67.60;;;;;;6220416;28;20816;-76
2021/10/14 08:26:45;;;;;;;8.48;5.10;;;12.50;68.30;;;;;;6220738;28;20428;-76
2021/10/14 08:29:47;;;;;;;9.48;6.20;;;12.40;69.00;;;;;;6220470;28;20507;-75
2021/10/14 08:32:52;;;;;;;7.60;5.45;;;12.30;69.30;;;;;;6220935;28;20415;-75
2021/10/14 08:35:53;;;;;;;7.25;4.97;;;12.40;70.00;;;;;;6220455;28;20484;-75
2021/10/14 08:38:55;;;;;;;7.57;5.43;;;12.50;69.40;;;;;;6220159;28;20424;-75
2021/10/14 08:41:59;;;;;;;9.55;5.75;;;12.60;69.90;;;;;;6220172;28;20431;-76
2021/10/14 08:45:03;;;;;;;9.68;5.82;;;13.00;68.90;;;;;;6220796;28;20437;-75
2021/10/14 08:48:06;;;;;;;6.53;5.30;;;13.60;69.70;;;;;;6220387;28;20437;-75
2021/10/14 08:51:08;;;;;;;5.78;5.18;;;14.20;70.10;;;;;;6220021;28;20420;-76
2021/10/14 08:54:10;;;;;;;7.82;4.75;;;15.00;65.10;;;;;;6220266;28;20495;-77
2021/10/14 08:57:13;;;;;;;6.47;5.63;;;15.40;64.00;;;;;;6220082;28;20432;-75
2021/10/14 09:00:15;;;;;;;9.00;4.65;;;16.00;60.50;;;;;;6220101;28;20428;-75
2021/10/14 09:03:25;;;;;;;8.48;5.20;;;16.30;61.40;;;;;;6220098;28;20902;-75
2021/10/14 09:06:26;;;;;;;7.63;5.20;;;16.40;58.90;;;;;;6219628;28;20434;-75
2021/10/14 09:09:37;;;;;;;7.13;5.50;;;16.50;58.40;;;;;;6219492;28;20428;-75
2021/10/14 09:12:42;;;;;;;8.02;5.05;;;16.30;58.30;;;;;;6211293;28;20992;-75
2021/10/14 09:15:44;;;;;;;6.78;5.53;;;16.10;59.50;;;;;;6210166;28;20563;-75
2021/10/14 09:18:46;;;;;;;8.37;5.90;;;15.90;59.50;;;;;;6219407;28;20535;-75
2021/10/14 09:21:50;;;;;;;8.90;6.45;;;15.80;58.90;;;;;;6219984;28;20914;-75
2021/10/14 09:24:52;;;;;;;6.20;5.28;;;16.00;59.90;;;;;;6220462;28;20436;-75
2021/10/14 09:28:11;;;;;;;6.22;5.03;;;16.40;58.00;;;;;;6220757;28;20420;-76
2021/10/14 09:31:13;;;;;;;6.13;4.57;;;16.60;59.00;;;;;;6224303;28;20421;-75
2021/10/14 09:34:35;;;;;;;5.45;4.68;;;17.20;58.60;;;;;;6224307;28;20420;-75
2021/10/14 09:37:38;;;;;;;5.97;4.50;;;17.80;55.10;;;;;;6224085;28;21020;-76
2021/10/14 09:40:41;;;;;;;7.60;4.85;;;18.40;54.00;;;;;;6224158;28;20475;-76
2021/10/14 09:43:47;;;;;;;8.45;4.93;;;18.80;51.80;;;;;;6224139;28;20489;-76
2021/10/14 09:46:50;;;;;;;6.60;4.93;;;19.00;51.60;;;;;;6223508;28;20955;-76
2021/10/14 09:50:06;;;;;;;5.60;4.33;;;19.10;50.80;;;;;;6223648;28;20818;-76
2021/10/14 09:53:10;;;;;;;9.02;5.93;;;19.30;51.50;;;;;;6224262;28;20477;-75
2021/10/14 09:56:12;;;;;;;6.72;5.25;;;19.60;50.50;;;;;;6224934;28;20440;-77
2021/10/14 09:59:15;;;;;;;6.72;4.90;;;19.90;48.10;;;;;;6223710;28;20425;-76
2021/10/14 10:02:17;;;;;;;7.00;4.88;;;20.20;48.30;;;;;;6223752;28;20417;-76
2021/10/14 10:05:19;;;;;;;7.82;4.30;;;20.30;47.90;;;;;;6223700;28;20416;-76
2021/10/14 10:08:27;;;;;;;9.50;4.77;;;20.40;47.30;;;;;;6224080;28;20437;-75
2021/10/14 10:11:30;;;;;;;7.55;4.50;;;20.40;46.30;;;;;;6223489;28;20417;-76
2021/10/14 10:14:33;;;;;;;6.32;4.40;;;20.20;46.40;;;;;;6211053;28;20432;-76
2021/10/14 10:17:39;;;;;;;8.93;4.57;;;19.90;47.80;;;;;;6223336;28;20413;-75
2021/10/14 10:20:42;;;;;;;6.25;4.28;;;20.00;47.50;;;;;;6223090;28;21014;-75
2021/10/14 10:23:48;;;;;;;10.52;4.82;;;20.00;48.10;;;;;;6223334;28;20448;-75
2021/10/14 10:26:51;;;;;;;7.18;4.35;;;20.10;48.20;;;;;;6223136;28;20428;-75
2021/10/14 10:29:59;;;;;;;6.47;4.65;;;20.00;46.50;;;;;;6222839;28;20798;-76
2021/10/14 10:33:02;;;;;;;7.60;5.25;;;20.10;47.10;;;;;;6222944;28;20483;-76
2021/10/14 10:36:05;;;;;;;7.28;4.88;;;20.00;46.30;;;;;;6223616;28;20447;-76
2021/10/14 10:39:06;;;;;;;6.75;4.63;;;19.60;48.20;;;;;;6221704;28;20764;-75
2021/10/14 10:42:14;;;;;;;10.52;5.50;;;19.60;48.50;;;;;;6222990;28;20416;-75
2021/10/14 10:45:21;;;;;;;7.60;4.90;;;19.70;48.80;;;;;;6222514;28;20576;-75
2021/10/14 10:48:34;;;;;;;7.77;4.80;;;19.60;48.00;;;;;;6222865;28;20463;-75
2021/10/14 10:51:36;;;;;;;5.50;4.15;;;19.50;48.30;;;;;;6222592;28;20420;-75
2021/10/14 10:54:41;;;;;;;8.98;5.10;;;19.50;49.10;;;;;;6222481;28;20432;-75
2021/10/14 10:57:48;;;;;;;6.78;4.30;;;19.70;48.50;;;;;;6222474;28;20494;-75
2021/10/14 11:00:51;;;;;;;6.60;4.88;;;19.80;47.80;;;;;;6222518;28;20440;-75
2021/10/14 11:03:55;;;;;;;5.32;3.63;;;19.70;47.30;;;;;;6222607;28;20417;-75
2021/10/14 11:06:57;;;;;;;6.05;4.00;;;19.90;47.00;;;;;;6222514;28;20507;-75
2021/10/14 11:09:59;;;;;;;8.50;3.83;;;20.10;46.60;;;;;;6221611;28;20424;-75
2021/10/14 11:13:01;;;;;;;4.35;3.70;;;20.30;45.20;;;;;;6221598;28;20531;-75
2021/10/14 11:16:06;;;;;;;5.83;3.70;;;20.20;45.60;;;;;;6215449;28;20436;-75
2021/10/14 11:19:18;;;;;;;6.40;3.88;;;20.10;45.70;;;;;;6221610;28;20907;-75
2021/10/14 11:22:19;;;;;;;4.15;3.60;;;19.90;45.80;;;;;;6221894;28;20428;-76
2021/10/14 11:25:21;;;;;;;6.00;4.18;;;19.80;46.60;;;;;;6221718;28;20933;-75
2021/10/14 11:28:23;;;;;;;4.83;2.90;;;19.90;46.40;;;;;;6222157;28;20543;-76
2021/10/14 11:31:33;;;;;;;7.55;3.50;;;20.10;45.70;;;;;;6221530;28;20417;-76
2021/10/14 11:34:36;;;;;;;6.30;2.90;;;20.40;44.90;;;;;;6221580;28;20787;-76
2021/10/14 11:37:39;;;;;;;8.32;2.95;;;20.60;44.10;;;;;;6221688;28;20428;-75
2021/10/14 11:40:41;;;;;;;5.50;3.35;;;20.80;44.80;;;;;;6221726;28;20441;-76
2021/10/14 11:43:43;;;;;;;6.93;3.50;;;21.00;43.60;;;;;;6221816;28;20463;-75
2021/10/14 11:46:47;;;;;;;4.82;3.13;;;21.20;44.20;;;;;;6220541;28;20985;-76
2021/10/14 11:49:59;;;;;;;3.70;2.53;;;21.20;43.60;;;;;;6221152;28;20480;-75
2021/10/14 11:53:03;;;;;;;4.35;2.67;;;21.40;42.70;;;;;;6221289;28;20436;-75
2021/10/14 11:56:07;;;;;;;5.80;3.47;;;21.40;42.90;;;;;;6221756;28;20432;-76
2021/10/14 11:59:09;;;;;;;4.90;2.10;;;21.50;43.30;;;;;;6220804;28;20420;-76
2021/10/14 12:02:14;;;;;;;3.53;2.90;;;21.70;43.70;;;;;;6220920;28;20499;-75
2021/10/14 12:05:16;;;;;;;4.88;2.55;;;21.70;42.00;;;;;;6221314;28;20438;-76
2021/10/14 12:08:18;;;;;;;3.53;2.50;;;21.90;41.40;;;;;;6221417;28;20433;-78
2021/10/14 12:11:21;;;;;;;3.95;2.70;;;21.80;40.90;;;;;;6220959;28;20417;-75
2021/10/14 12:14:25;;;;;;;4.60;2.87;;;21.50;42.30;;;;;;6220556;28;20423;-76
2021/10/14 12:17:37;;;;;;;4.07;2.72;;;21.50;43.00;;;;;;6213986;28;20902;-75
2021/10/14 12:20:39;;;;;;;5.10;3.35;;;21.40;43.10;;;;;;6220954;28;20472;-76
2021/10/14 12:23:40;;;;;;;4.63;2.60;;;21.30;43.30;;;;;;6220821;28;20423;-75
2021/10/14 12:26:45;;;;;;;6.00;2.20;;;21.30;44.00;;;;;;6220575;28;20964;-76
2021/10/14 12:29:48;;;;;;;5.25;2.92;;;21.50;42.70;;;;;;6220349;28;20914;-75
2021/10/14 12:32:53;;;;;;;3.85;2.40;;;21.70;42.50;;;;;;6220876;28;20437;-76
2021/10/14 12:35:56;;;;;;;4.38;2.05;;;21.90;41.50;;;;;;6220352;28;20427;-77
2021/10/14 12:38:58;;;;;;;4.37;2.00;;;22.00;39.60;;;;;;6220250;28;20424;-76
2021/10/14 12:42:00;;;;;;;3.67;2.30;;;22.00;39.80;;;;;;6220320;28;20417;-75
2021/10/14 12:45:06;;;;;;;7.72;3.28;;;22.00;39.50;;;;;;6220694;28;20444;-76
2021/10/14 12:48:31;;;;;;;2.97;2.20;;;22.10;39.00;;;;;;6235963;23;20448;-78
2021/10/14 12:51:42;;;;;;;3.15;1.92;;;22.30;38.70;;;;;;6227688;28;20448;-76
2021/10/14 12:54:44;;;;;;;2.70;2.17;;;22.20;39.20;;;;;;6226354;28;20894;-77
2021/10/14 12:57:46;;;;;;;6.75;5.13;;;22.10;39.20;;;;;;6227934;28;20461;-78
2021/10/14 13:00:57;;;;;;;18.17;16.52;;;22.20;38.90;;;;;;6226880;28;20579;-79
2021/10/14 13:04:04;;;;;;;107.50;93.72;;;22.30;38.30;;;;;;6232430;28;20408;-81
2021/10/14 13:07:06;;;;;;;5.70;2.85;;;22.20;38.90;;;;;;6233764;28;20425;-79
2021/10/14 13:10:08;;;;;;;4.82;4.32;;;22.30;38.70;;;;;;6233547;28;20417;-79
2021/10/14 13:13:11;;;;;;;4.43;2.45;;;22.50;38.00;;;;;;6233173;28;20464;-81
2021/10/14 13:16:13;;;;;;;3.67;1.83;;;22.50;37.60;;;;;;6225398;28;20815;-78
2021/10/14 13:19:21;;;;;;;5.10;2.20;;;22.50;38.10;;;;;;6208894;28;20725;-77
2021/10/14 13:22:23;;;;;;;4.72;2.28;;;22.50;38.50;;;;;;6206224;28;20789;-78
2021/10/14 13:25:25;;;;;;;24.00;19.73;;;22.50;38.00;;;;;;6210112;28;20480;-78
2021/10/14 13:28:31;;;;;;;7.18;5.90;;;22.50;38.30;;;;;;6209887;28;20524;-79
2021/10/14 13:31:34;;;;;;;7.03;5.28;;;22.70;38.00;;;;;;6214614;28;20888;-78
2021/10/14 13:34:54;;;;;;;11.20;10.07;;;22.80;37.20;;;;;;6209908;28;20458;-76
2021/10/14 13:37:56;;;;;;;4.20;2.45;;;22.80;38.10;;;;;;6207870;28;20429;-79
2021/10/14 13:41:00;;;;;;;4.65;2.03;;;22.80;37.70;;;;;;6206629;28;20474;-78
2021/10/14 13:44:18;;;;;;;9.13;7.97;;;22.80;37.30;;;;;;6208248;28;20429;-79
2021/10/14 13:47:20;;;;;;;6.22;3.67;;;22.70;37.60;;;;;;6207535;28;20424;-78
2021/10/14 13:50:23;;;;;;;4.85;2.47;;;22.90;37.60;;;;;;6234343;28;20898;-79
2021/10/14 13:53:26;;;;;;;5.27;2.20;;;22.90;37.20;;;;;;6233440;28;20965;-79
2021/10/14 13:56:29;;;;;;;3.08;2.05;;;22.90;37.70;;;;;;6234103;28;20428;-79
2021/10/14 13:59:32;;;;;;;4.30;3.00;;;22.90;37.60;;;;;;6234754;28;20424;-79
2021/10/14 14:02:36;;;;;;;4.43;2.58;;;22.90;37.20;;;;;;6232658;28;20421;-79
2021/10/14 14:05:44;;;;;;;4.85;2.00;;;22.80;38.00;;;;;;6234174;28;20417;-79
2021/10/14 14:12:09;;;;;;;4.70;2.15;;;22.60;37.90;;;;;;6237584;28;20460;-78
2021/10/14 14:15:14;;;;;;;4.45;2.03;;;22.60;38.20;;;;;;6236300;28;20429;-78
2021/10/14 14:18:16;;;;;;;3.97;1.90;;;22.60;37.30;;;;;;6229439;28;20448;-79
2021/10/14 14:21:42;;;;;;;5.82;2.35;;;22.60;37.50;;;;;;6208403;28;20537;-79
2021/10/14 14:24:48;;;;;;;6.45;2.60;;;22.40;37.80;;;;;;6210650;28;20430;-79
2021/10/14 14:28:00;;;;;;;4.45;2.10;;;22.30;38.50;;;;;;6208305;28;20484;-79
2021/10/14 14:31:01;;;;;;;5.68;2.13;;;22.10;38.30;;;;;;6206187;28;20486;-79
2021/10/14 14:34:03;;;;;;;4.28;2.50;;;22.00;39.20;;;;;;6208368;28;20477;-78
2021/10/14 14:37:10;;;;;;;5.80;2.42;;;22.00;38.90;;;;;;6206899;28;20449;-79
2021/10/14 14:40:12;;;;;;;5.20;1.90;;;22.00;39.30;;;;;;6206949;28;20442;-79
2021/10/14 14:43:28;;;;;;;2.70;1.75;;;22.10;38.90;;;;;;6207718;28;20907;-79
2021/10/14 14:46:30;;;;;;;3.88;2.00;;;22.10;38.40;;;;;;6224279;28;20487;-78
2021/10/14 14:49:32;;;;;;;3.63;2.15;;;22.00;38.60;;;;;;6224630;28;20427;-79
2021/10/14 14:52:35;;;;;;;4.60;2.33;;;21.90;39.50;;;;;;6241311;28;20802;-78
2021/10/14 14:55:38;;;;;;;2.90;2.20;;;21.80;39.10;;;;;;6231419;28;20988;-79
2021/10/14 14:58:41;;;;;;;2.40;1.85;;;21.80;39.80;;;;;;6216952;28;20441;-79
2021/10/14 15:01:42;;;;;;;4.57;2.17;;;21.90;38.90;;;;;;6231127;28;20463;-79
2021/10/14 15:04:45;;;;;;;2.97;1.85;;;21.90;39.20;;;;;;6232630;28;20436;-78
2021/10/14 15:07:48;;;;;;;5.63;2.03;;;21.80;38.90;;;;;;6227551;28;20421;-78
2021/10/14 15:10:50;;;;;;;2.35;1.65;;;21.70;39.00;;;;;;6227928;28;20420;-79
2021/10/14 15:13:52;;;;;;;2.97;2.00;;;21.60;39.40;;;;;;6229403;28;20417;-79
2021/10/14 15:16:53;;;;;;;6.60;2.47;;;21.50;40.00;;;;;;6229883;28;20432;-78
2021/10/14 15:19:55;;;;;;;3.03;2.10;;;21.40;40.40;;;;;;6219241;28;20435;-78
2021/10/14 15:22:59;;;;;;;5.47;3.38;;;21.40;39.30;;;;;;6228495;28;20826;-79
2021/10/14 15:26:01;;;;;;;4.20;2.15;;;21.20;40.50;;;;;;6228728;28;20428;-79
2021/10/14 15:29:03;;;;;;;4.18;2.33;;;20.90;41.10;;;;;;6230942;28;20440;-78
2021/10/14 15:32:07;;;;;;;4.00;2.40;;;20.60;41.50;;;;;;6230325;28;20443;-81
2021/10/14 15:35:09;;;;;;;4.25;2.03;;;20.10;42.80;;;;;;6227057;28;20936;-79
2021/10/14 15:38:19;;;;;;;5.32;3.42;;;19.70;44.20;;;;;;6227243;28;20905;-79
2021/10/14 15:41:21;;;;;;;4.60;2.42;;;19.30;45.30;;;;;;6228051;28;20488;-79
2021/10/14 15:44:23;;;;;;;5.18;3.00;;;18.80;46.20;;;;;;6228612;28;20432;-79
2021/10/14 15:47:25;;;;;;;5.80;2.30;;;18.60;47.40;;;;;;6229573;28;20500;-80
2021/10/14 15:50:27;;;;;;;5.40;2.40;;;18.20;49.50;;;;;;6228256;28;20435;-77
2021/10/14 15:53:30;;;;;;;4.97;2.58;;;18.00;50.60;;;;;;6226299;28;20412;-79
2021/10/14 15:56:34;;;;;;;3.60;2.22;;;17.70;53.20;;;;;;6230196;28;20825;-79
2021/10/14 15:59:36;;;;;;;8.07;3.65;;;17.50;55.40;;;;;;6229045;28;20439;-78
2021/10/14 16:02:37;;;;;;;6.65;2.83;;;17.20;54.40;;;;;;6226092;28;20508;-78